sensor_id;sensor_type;location;lat;lon;timestamp;pressure;altitude;pressure_sealevel;temperature;humidity
14885;BME280;7534;50.762;7.000;2023-05-29T00:00:21;87119.56;;;-143.16;51.37
14885;BME280;7534;50.762;7.000;2023-05-29T00:02:49;87097.34;;;-143.16;51.52
14885;BME280;7534;50.762;7.000;2023-05-29T00:05:17;87095.34;;;-143.16;51.62
14885;BME280;7534;50.762;7.000;2023-05-29T00:07:43;87115.53;;;-143.16;51.73
14885;BME280;7534;50.762;7.000;2023-05-29T00:10:10;87101.41;;;-143.16;52.13
14885;BME280;7534;50.762;7.000;2023-05-29T00:12:38;87147.81;;;-143.16;52.26
14885;BME280;7534;50.762;7.000;2023-05-29T00:15:05;87313.28;;;-143.16;52.69
14885;BME280;7534;50.762;7.000;2023-05-29T00:17:31;87127.63;;;-143.16;52.85
14885;BME280;7534;50.762;7.000;2023-05-29T00:20:01;87184.13;;;-143.16;53.06
14885;BME280;7534;50.762;7.000;2023-05-29T00:22:28;87184.13;;;-143.16;53.27
14885;BME280;7534;50.762;7.000;2023-05-29T00:24:54;87163.94;;;-143.16;53.38
14885;BME280;7534;50.762;7.000;2023-05-29T00:27:20;87198.25;;;-143.16;53.73
14885;BME280;7534;50.762;7.000;2023-05-29T00:29:46;87196.25;;;-143.16;53.86
14885;BME280;7534;50.762;7.000;2023-05-29T00:32:12;87206.34;;;-143.16;54.16
14885;BME280;7534;50.762;7.000;2023-05-29T00:34:38;87206.34;;;-143.16;54.38
14885;BME280;7534;50.762;7.000;2023-05-29T00:37:04;87184.13;;;-143.16;55.08
14885;BME280;7534;50.762;7.000;2023-05-29T00:39:30;87218.44;;;-143.16;55.29
14885;BME280;7534;50.762;7.000;2023-05-29T00:41:56;87204.31;;;-143.16;55.70
14885;BME280;7534;50.762;7.000;2023-05-29T00:44:22;87270.91;;;-143.16;55.93
14885;BME280;7534;50.762;7.000;2023-05-29T00:46:51;87246.69;;;-143.16;55.94
14885;BME280;7534;50.762;7.000;2023-05-29T00:49:19;87224.50;;;-143.16;56.23
14885;BME280;7534;50.762;7.000;2023-05-29T00:51:45;87303.22;;;-143.16;56.39
14885;BME280;7534;50.762;7.000;2023-05-29T00:54:14;87270.91;;;-143.16;56.81
14885;BME280;7534;50.762;7.000;2023-05-29T00:56:43;87289.06;;;-143.16;56.91
14885;BME280;7534;50.762;7.000;2023-05-29T00:59:11;87236.59;;;-143.16;57.31
14885;BME280;7534;50.762;7.000;2023-05-29T01:01:38;87345.59;;;-143.16;57.26
14885;BME280;7534;50.762;7.000;2023-05-29T01:04:06;87301.19;;;-143.16;57.81
14885;BME280;7534;50.762;7.000;2023-05-29T01:06:35;87285.03;;;-143.16;57.67
14885;BME280;7534;50.762;7.000;2023-05-29T01:09:01;87343.56;;;-143.16;57.87
14885;BME280;7534;50.762;7.000;2023-05-29T01:11:49;87295.13;;;-143.16;58.26
14885;BME280;7534;50.762;7.000;2023-05-29T01:17:28;87367.78;;;-143.16;58.57
14885;BME280;7534;50.762;7.000;2023-05-29T01:29:08;87365.75;;;-143.16;59.89
14885;BME280;7534;50.762;7.000;2023-05-29T01:31:38;87379.91;;;-143.16;60.13
14885;BME280;7534;50.762;7.000;2023-05-29T01:34:05;87337.50;;;-143.16;60.12
14885;BME280;7534;50.762;7.000;2023-05-29T01:36:31;87369.81;;;-143.16;60.25
14885;BME280;7534;50.762;7.000;2023-05-29T01:38:59;87385.94;;;-143.16;60.17
14885;BME280;7534;50.762;7.000;2023-05-29T01:41:26;87353.66;;;-143.16;60.22
14885;BME280;7534;50.762;7.000;2023-05-29T01:43:53;87375.84;;;-143.16;60.20
14885;BME280;7534;50.762;7.000;2023-05-29T01:46:20;87408.16;;;-143.16;60.34
14885;BME280;7534;50.762;7.000;2023-05-29T01:48:46;87381.91;;;-143.16;60.59
14885;BME280;7534;50.762;7.000;2023-05-29T01:51:13;87456.59;;;-143.16;60.77
14885;BME280;7534;50.762;7.000;2023-05-29T01:53:41;87430.34;;;-143.16;60.93
14885;BME280;7534;50.762;7.000;2023-05-29T01:56:08;87379.91;;;-143.16;61.07
14885;BME280;7534;50.762;7.000;2023-05-29T01:58:35;87408.16;;;-143.16;61.24
14885;BME280;7534;50.762;7.000;2023-05-29T02:01:02;87422.28;;;-143.16;61.32
14885;BME280;7534;50.762;7.000;2023-05-29T02:03:32;87442.47;;;-143.16;61.38
14885;BME280;7534;50.762;7.000;2023-05-29T02:05:59;87424.28;;;-143.16;61.50
14885;BME280;7534;50.762;7.000;2023-05-29T02:08:26;87549.44;;;-143.16;61.62
14885;BME280;7534;50.762;7.000;2023-05-29T02:10:52;87448.50;;;-143.16;61.63
14885;BME280;7534;50.762;7.000;2023-05-29T02:13:18;87450.53;;;-143.16;61.77
14885;BME280;7534;50.762;7.000;2023-05-29T02:15:44;87434.38;;;-143.16;62.02
14885;BME280;7534;50.762;7.000;2023-05-29T02:18:14;87466.69;;;-143.16;61.99
14885;BME280;7534;50.762;7.000;2023-05-29T02:20:40;87494.94;;;-143.16;61.94
14885;BME280;7534;50.762;7.000;2023-05-29T02:23:09;87482.81;;;-143.16;62.15
14885;BME280;7534;50.762;7.000;2023-05-29T02:25:35;87490.91;;;-143.16;62.42
14885;BME280;7534;50.762;7.000;2023-05-29T02:28:01;87454.56;;;-143.16;62.56
14885;BME280;7534;50.762;7.000;2023-05-29T02:30:30;87519.16;;;-143.16;62.77
14885;BME280;7534;50.762;7.000;2023-05-29T02:32:56;87535.28;;;-143.16;62.96
14885;BME280;7534;50.762;7.000;2023-05-29T02:35:22;87527.22;;;-143.16;63.03
14885;BME280;7534;50.762;7.000;2023-05-29T02:37:52;87505.03;;;-143.16;62.76
14885;BME280;7534;50.762;7.000;2023-05-29T02:40:19;87521.16;;;-143.16;62.89
14885;BME280;7534;50.762;7.000;2023-05-29T02:42:46;87519.16;;;-143.16;62.89
14885;BME280;7534;50.762;7.000;2023-05-29T02:45:12;87523.19;;;-143.16;62.89
14885;BME280;7534;50.762;7.000;2023-05-29T02:47:38;87537.31;;;-143.16;62.73
14885;BME280;7534;50.762;7.000;2023-05-29T02:50:05;87531.25;;;-143.16;62.91
14885;BME280;7534;50.762;7.000;2023-05-29T02:52:32;87555.47;;;-143.16;62.80
14885;BME280;7534;50.762;7.000;2023-05-29T02:54:58;87545.38;;;-143.16;62.56
14885;BME280;7534;50.762;7.000;2023-05-29T02:57:24;87555.47;;;-143.16;62.56
14885;BME280;7534;50.762;7.000;2023-05-29T02:59:50;87503.00;;;-143.16;62.27
14885;BME280;7534;50.762;7.000;2023-05-29T03:02:17;87577.69;;;-143.16;61.82
14885;BME280;7534;50.762;7.000;2023-05-29T03:04:44;87507.03;;;-143.16;61.60
14885;BME280;7534;50.762;7.000;2023-05-29T03:07:10;87559.53;;;-143.16;61.08
14885;BME280;7534;50.762;7.000;2023-05-29T03:09:35;87567.59;;;-143.16;60.92
14885;BME280;7534;50.762;7.000;2023-05-29T03:12:02;87565.56;;;-143.16;61.03
14885;BME280;7534;50.762;7.000;2023-05-29T03:14:28;87559.53;;;-143.16;60.68
14885;BME280;7534;50.762;7.000;2023-05-29T03:16:54;87571.63;;;-143.16;60.64
14885;BME280;7534;50.762;7.000;2023-05-29T03:19:20;87545.38;;;-143.16;60.53
14885;BME280;7534;50.762;7.000;2023-05-29T03:21:46;87523.19;;;-143.16;60.28
14885;BME280;7534;50.762;7.000;2023-05-29T03:24:12;87519.16;;;-143.16;60.06
14885;BME280;7534;50.762;7.000;2023-05-29T03:26:41;87527.22;;;-143.16;59.88
14885;BME280;7534;50.762;7.000;2023-05-29T03:29:06;87573.66;;;-143.16;60.00
14885;BME280;7534;50.762;7.000;2023-05-29T03:31:32;87555.47;;;-143.16;59.91
14885;BME280;7534;50.762;7.000;2023-05-29T03:33:59;87565.56;;;-143.16;60.11
14885;BME280;7534;50.762;7.000;2023-05-29T03:36:25;87511.06;;;-143.16;60.34
14885;BME280;7534;50.762;7.000;2023-05-29T03:38:50;87539.34;;;-143.16;60.25
14885;BME280;7534;50.762;7.000;2023-05-29T03:41:16;87541.34;;;-143.16;60.19
14885;BME280;7534;50.762;7.000;2023-05-29T03:43:42;87597.88;;;-143.16;59.88
14885;BME280;7534;50.762;7.000;2023-05-29T03:46:08;87537.31;;;-143.16;59.70
14885;BME280;7534;50.762;7.000;2023-05-29T03:48:33;87549.44;;;-143.16;60.02
14885;BME280;7534;50.762;7.000;2023-05-29T03:51:00;87583.75;;;-143.16;59.81
14885;BME280;7534;50.762;7.000;2023-05-29T03:53:26;87515.13;;;-143.16;59.56
14885;BME280;7534;50.762;7.000;2023-05-29T03:55:51;87480.81;;;-143.16;59.45
14885;BME280;7534;50.762;7.000;2023-05-29T03:58:17;87601.91;;;-143.16;59.08
14885;BME280;7534;50.762;7.000;2023-05-29T04:00:43;87549.44;;;-143.16;59.13
14885;BME280;7534;50.762;7.000;2023-05-29T04:03:08;87521.16;;;-143.16;58.92
14885;BME280;7534;50.762;7.000;2023-05-29T04:05:34;87599.88;;;-143.16;58.82
14885;BME280;7534;50.762;7.000;2023-05-29T04:08:00;87513.09;;;-143.16;58.61
14885;BME280;7534;50.762;7.000;2023-05-29T04:10:29;87555.47;;;-143.16;58.45
14885;BME280;7534;50.762;7.000;2023-05-29T04:13:00;87597.88;;;-143.16;58.44
14885;BME280;7534;50.762;7.000;2023-05-29T04:15:27;87527.22;;;-143.16;57.75
14885;BME280;7534;50.762;7.000;2023-05-29T04:17:54;87474.75;;;-143.16;57.54
14885;BME280;7534;50.762;7.000;2023-05-29T04:20:21;87472.72;;;-143.16;57.18
14885;BME280;7534;50.762;7.000;2023-05-29T04:22:46;87476.75;;;-143.16;57.01
14885;BME280;7534;50.762;7.000;2023-05-29T04:25:12;87482.81;;;-143.16;56.51
14885;BME280;7534;50.762;7.000;2023-05-29T04:27:38;87426.31;;;-143.16;56.44
14885;BME280;7534;50.762;7.000;2023-05-29T04:30:06;87428.34;;;-143.16;56.22
14885;BME280;7534;50.762;7.000;2023-05-29T04:32:32;87432.38;;;-143.16;55.40
14885;BME280;7534;50.762;7.000;2023-05-29T04:34:59;87434.38;;;-143.16;55.67
14885;BME280;7534;50.762;7.000;2023-05-29T04:37:28;87345.59;;;-143.16;54.55
14885;BME280;7534;50.762;7.000;2023-05-29T04:39:56;87172.03;;;-143.16;51.51
14885;BME280;7534;50.762;7.000;2023-05-29T04:42:23;87006.53;;;-143.16;48.48
14885;BME280;7534;50.762;7.000;2023-05-29T04:44:51;86865.28;;;-143.16;45.09
14885;BME280;7534;50.762;7.000;2023-05-29T04:47:19;86895.56;;;-143.16;43.10
14885;BME280;7534;50.762;7.000;2023-05-29T04:49:45;86695.78;;;-143.16;42.18
14885;BME280;7534;50.762;7.000;2023-05-29T04:52:18;86744.22;;;-143.16;42.16
14885;BME280;7534;50.762;7.000;2023-05-29T04:54:44;86667.53;;;-143.16;41.33
14885;BME280;7534;50.762;7.000;2023-05-29T04:57:09;86740.19;;;-143.16;41.54
14885;BME280;7534;50.762;7.000;2023-05-29T04:59:36;86770.44;;;-143.16;42.39
14885;BME280;7534;50.762;7.000;2023-05-29T05:02:01;86869.31;;;-143.16;43.42
14885;BME280;7534;50.762;7.000;2023-05-29T05:04:27;86901.63;;;-143.16;43.88
14885;BME280;7534;50.762;7.000;2023-05-29T05:06:53;86986.38;;;-143.16;44.41
14885;BME280;7534;50.762;7.000;2023-05-29T05:09:18;86996.47;;;-143.16;45.42
14885;BME280;7534;50.762;7.000;2023-05-29T05:11:44;87059.00;;;-143.16;46.21
14885;BME280;7534;50.762;7.000;2023-05-29T05:14:10;87125.59;;;-143.16;46.59
14885;BME280;7534;50.762;7.000;2023-05-29T05:16:36;87109.47;;;-143.16;47.37
14885;BME280;7534;50.762;7.000;2023-05-29T05:19:01;87161.94;;;-143.16;47.03
14885;BME280;7534;50.762;7.000;2023-05-29T05:21:27;86998.47;;;-143.16;46.24
14885;BME280;7534;50.762;7.000;2023-05-29T05:23:57;87010.59;;;-143.16;45.79
14885;BME280;7534;50.762;7.000;2023-05-29T05:26:23;87014.63;;;-143.16;46.11
14885;BME280;7534;50.762;7.000;2023-05-29T05:28:48;87079.19;;;-143.16;46.06
14885;BME280;7534;50.762;7.000;2023-05-29T05:31:14;87091.31;;;-143.16;46.71
14885;BME280;7534;50.762;7.000;2023-05-29T05:33:40;87091.31;;;-143.16;47.29
14885;BME280;7534;50.762;7.000;2023-05-29T05:36:06;87168.00;;;-143.16;47.13
14885;BME280;7534;50.762;7.000;2023-05-29T05:38:32;87210.38;;;-143.16;47.23
14885;BME280;7534;50.762;7.000;2023-05-29T05:40:57;87212.38;;;-143.16;47.13
14885;BME280;7534;50.762;7.000;2023-05-29T05:43:23;87105.44;;;-143.16;47.21
14885;BME280;7534;50.762;7.000;2023-05-29T05:45:49;87151.84;;;-143.16;47.53
14885;BME280;7534;50.762;7.000;2023-05-29T05:48:15;87085.25;;;-143.16;47.27
14885;BME280;7534;50.762;7.000;2023-05-29T05:50:41;87125.59;;;-143.16;47.58
14885;BME280;7534;50.762;7.000;2023-05-29T05:53:06;87139.75;;;-143.16;47.90
14885;BME280;7534;50.762;7.000;2023-05-29T05:55:32;87147.81;;;-143.16;47.59
14885;BME280;7534;50.762;7.000;2023-05-29T05:57:58;87125.59;;;-143.16;47.34
14885;BME280;7534;50.762;7.000;2023-05-29T06:00:24;87135.69;;;-143.16;47.89
14885;BME280;7534;50.762;7.000;2023-05-29T06:02:49;87111.47;;;-143.16;47.79
14885;BME280;7534;50.762;7.000;2023-05-29T06:05:15;87115.53;;;-143.16;47.65
14885;BME280;7534;50.762;7.000;2023-05-29T06:07:41;87119.56;;;-143.16;47.80
14885;BME280;7534;50.762;7.000;2023-05-29T06:10:07;87048.94;;;-143.16;47.56
14885;BME280;7534;50.762;7.000;2023-05-29T06:12:33;87143.78;;;-143.16;47.65
14885;BME280;7534;50.762;7.000;2023-05-29T06:15:00;87137.72;;;-143.16;48.01
14885;BME280;7534;50.762;7.000;2023-05-29T06:17:25;87034.81;;;-143.16;48.44
14885;BME280;7534;50.762;7.000;2023-05-29T06:19:52;87050.94;;;-143.16;48.58
14885;BME280;7534;50.762;7.000;2023-05-29T06:22:18;87139.75;;;-143.16;48.27
14885;BME280;7534;50.762;7.000;2023-05-29T06:24:44;87040.84;;;-143.16;48.03
14885;BME280;7534;50.762;7.000;2023-05-29T06:27:10;87115.53;;;-143.16;48.33
14885;BME280;7534;50.762;7.000;2023-05-29T06:29:37;87228.53;;;-143.16;48.08
14885;BME280;7534;50.762;7.000;2023-05-29T06:32:02;87149.81;;;-143.16;47.37
14885;BME280;7534;50.762;7.000;2023-05-29T06:34:28;87184.13;;;-143.16;47.65
14885;BME280;7534;50.762;7.000;2023-05-29T06:36:54;86998.47;;;-143.16;47.44
14885;BME280;7534;50.762;7.000;2023-05-29T06:39:20;87077.19;;;-143.16;47.12
14885;BME280;7534;50.762;7.000;2023-05-29T06:41:46;86964.16;;;-143.16;46.81
14885;BME280;7534;50.762;7.000;2023-05-29T06:44:12;86956.09;;;-143.16;46.47
14885;BME280;7534;50.762;7.000;2023-05-29T06:46:37;87030.75;;;-143.16;45.58
14885;BME280;7534;50.762;7.000;2023-05-29T06:49:03;86633.25;;;-143.16;42.17
14885;BME280;7534;50.762;7.000;2023-05-29T06:51:29;86280.16;;;-143.16;37.83
14885;BME280;7534;50.762;7.000;2023-05-29T06:53:55;86001.75;;;-143.16;34.92
14885;BME280;7534;50.762;7.000;2023-05-29T06:56:21;85529.72;;;-143.16;31.73
14885;BME280;7534;50.762;7.000;2023-05-29T06:58:47;85158.56;;;-143.16;28.81
14885;BME280;7534;50.762;7.000;2023-05-29T07:01:13;84868.16;;;-143.16;27.12
14885;BME280;7534;50.762;7.000;2023-05-29T07:03:39;84547.50;;;-143.16;26.24
14885;BME280;7534;50.762;7.000;2023-05-29T07:06:05;84329.72;;;-143.16;25.50
14885;BME280;7534;50.762;7.000;2023-05-29T07:08:31;84327.72;;;-143.16;25.26
14885;BME280;7534;50.762;7.000;2023-05-29T07:10:57;83976.88;;;-143.16;23.97
14885;BME280;7534;50.762;7.000;2023-05-29T07:13:25;83841.78;;;-143.16;23.65
14885;BME280;7534;50.762;7.000;2023-05-29T07:15:52;83527.28;;;-143.16;23.20
14885;BME280;7534;50.762;7.000;2023-05-29T07:18:17;83501.09;;;-143.16;22.95
14885;BME280;7534;50.762;7.000;2023-05-29T07:20:43;83374.09;;;-143.16;22.66
14885;BME280;7534;50.762;7.000;2023-05-29T07:23:09;83031.41;;;-143.16;21.85
14885;BME280;7534;50.762;7.000;2023-05-29T07:25:35;83138.25;;;-143.16;21.87
14885;BME280;7534;50.762;7.000;2023-05-29T07:28:00;83067.69;;;-143.16;21.48
14885;BME280;7534;50.762;7.000;2023-05-29T07:30:26;82938.69;;;-143.16;21.77
14885;BME280;7534;50.762;7.000;2023-05-29T07:32:52;83202.75;;;-143.16;21.79
14885;BME280;7534;50.762;7.000;2023-05-29T07:35:18;82912.50;;;-143.16;21.16
14885;BME280;7534;50.762;7.000;2023-05-29T07:37:43;82743.19;;;-143.16;21.10
14885;BME280;7534;50.762;7.000;2023-05-29T07:40:09;83164.44;;;-143.16;21.56
14885;BME280;7534;50.762;7.000;2023-05-29T07:42:35;82954.81;;;-143.16;21.43
14885;BME280;7534;50.762;7.000;2023-05-29T07:45:01;82559.78;;;-143.16;20.80
14885;BME280;7534;50.762;7.000;2023-05-29T07:47:27;82422.75;;;-143.16;20.56
14885;BME280;7534;50.762;7.000;2023-05-29T07:49:53;82551.72;;;-143.16;20.38
14885;BME280;7534;50.762;7.000;2023-05-29T07:52:19;82588.00;;;-143.16;20.72
14885;BME280;7534;50.762;7.000;2023-05-29T07:54:45;82739.16;;;-143.16;21.34
14885;BME280;7534;50.762;7.000;2023-05-29T07:57:10;83224.91;;;-143.16;21.77
14885;BME280;7534;50.762;7.000;2023-05-29T07:59:37;82829.84;;;-143.16;21.36
14885;BME280;7534;50.762;7.000;2023-05-29T08:02:03;83013.28;;;-143.16;21.22
14885;BME280;7534;50.762;7.000;2023-05-29T08:04:30;82908.47;;;-143.16;21.06
14885;BME280;7534;50.762;7.000;2023-05-29T08:06:56;82535.59;;;-143.16;20.62
14885;BME280;7534;50.762;7.000;2023-05-29T08:09:23;82706.91;;;-143.16;20.85
14885;BME280;7534;50.762;7.000;2023-05-29T08:11:48;82735.13;;;-143.16;20.66
14885;BME280;7534;50.762;7.000;2023-05-29T08:14:15;82864.13;;;-143.16;20.80
14885;BME280;7534;50.762;7.000;2023-05-29T08:16:42;82926.59;;;-143.16;21.04
14885;BME280;7534;50.762;7.000;2023-05-29T08:19:08;83041.50;;;-143.16;21.42
14885;BME280;7534;50.762;7.000;2023-05-29T08:21:34;83045.53;;;-143.16;21.36
14885;BME280;7534;50.762;7.000;2023-05-29T08:24:02;83178.56;;;-143.16;21.68
14885;BME280;7534;50.762;7.000;2023-05-29T08:26:30;83398.28;;;-143.16;21.73
14885;BME280;7534;50.762;7.000;2023-05-29T08:28:56;83273.31;;;-143.16;21.84
14885;BME280;7534;50.762;7.000;2023-05-29T08:31:22;83116.06;;;-143.16;21.51
14885;BME280;7534;50.762;7.000;2023-05-29T08:33:53;83218.88;;;-143.16;21.75
14885;BME280;7534;50.762;7.000;2023-05-29T08:36:19;83003.19;;;-143.16;21.44
14885;BME280;7534;50.762;7.000;2023-05-29T08:38:49;83041.50;;;-143.16;21.21
14885;BME280;7534;50.762;7.000;2023-05-29T08:41:41;83458.75;;;-143.16;21.92
14885;BME280;7534;50.762;7.000;2023-05-29T08:44:14;83497.06;;;-143.16;22.40
14885;BME280;7534;50.762;7.000;2023-05-29T08:46:44;83599.88;;;-143.16;22.38
14885;BME280;7534;50.762;7.000;2023-05-29T08:49:16;83333.78;;;-143.16;22.11
14885;BME280;7534;50.762;7.000;2023-05-29T08:51:49;83017.31;;;-143.16;21.29
14885;BME280;7534;50.762;7.000;2023-05-29T08:54:16;83253.13;;;-143.16;21.77
14885;BME280;7534;50.762;7.000;2023-05-29T08:56:42;83184.59;;;-143.16;21.51
14885;BME280;7534;50.762;7.000;2023-05-29T08:59:09;83073.75;;;-143.16;21.55
14885;BME280;7534;50.762;7.000;2023-05-29T09:01:36;83410.38;;;-143.16;22.29
14885;BME280;7534;50.762;7.000;2023-05-29T09:04:04;83366.03;;;-143.16;22.07
14885;BME280;7534;50.762;7.000;2023-05-29T09:06:30;83535.34;;;-143.16;22.58
14885;BME280;7534;50.762;7.000;2023-05-29T09:08:56;83521.25;;;-143.16;22.36
14885;BME280;7534;50.762;7.000;2023-05-29T09:11:23;83166.47;;;-143.16;21.74
14885;BME280;7534;50.762;7.000;2023-05-29T09:13:49;83027.38;;;-143.16;21.57
14885;BME280;7534;50.762;7.000;2023-05-29T09:16:17;82811.72;;;-143.16;21.69
14885;BME280;7534;50.762;7.000;2023-05-29T09:18:44;83359.97;;;-143.16;21.83
14885;BME280;7534;50.762;7.000;2023-05-29T09:21:27;83283.38;;;-143.16;22.11
14885;BME280;7534;50.762;7.000;2023-05-29T09:23:54;83519.22;;;-143.16;22.00
14885;BME280;7534;50.762;7.000;2023-05-29T09:26:21;83394.25;;;-143.16;22.11
14885;BME280;7534;50.762;7.000;2023-05-29T09:28:50;83376.09;;;-143.16;22.06
14885;BME280;7534;50.762;7.000;2023-05-29T09:31:16;83579.72;;;-143.16;22.75
14885;BME280;7534;50.762;7.000;2023-05-29T09:33:50;83769.22;;;-143.16;23.01
14885;BME280;7534;50.762;7.000;2023-05-29T09:36:23;83978.91;;;-143.16;23.30
14885;BME280;7534;50.762;7.000;2023-05-29T09:38:49;84152.28;;;-143.16;23.74
14885;BME280;7534;50.762;7.000;2023-05-29T09:41:23;83874.06;;;-143.16;23.08
14885;BME280;7534;50.762;7.000;2023-05-29T09:43:52;83936.56;;;-143.16;23.70
14885;BME280;7534;50.762;7.000;2023-05-29T09:46:21;84021.25;;;-143.16;23.69
14885;BME280;7534;50.762;7.000;2023-05-29T09:48:48;84019.22;;;-143.16;23.60
14885;BME280;7534;50.762;7.000;2023-05-29T09:51:23;84182.53;;;-143.16;24.13
14885;BME280;7534;50.762;7.000;2023-05-29T09:53:50;84128.09;;;-143.16;24.14
14885;BME280;7534;50.762;7.000;2023-05-29T09:56:23;84061.56;;;-143.16;24.01
14885;BME280;7534;50.762;7.000;2023-05-29T09:58:51;83948.66;;;-143.16;23.92
14885;BME280;7534;50.762;7.000;2023-05-29T10:01:18;83884.13;;;-143.16;24.24
14885;BME280;7534;50.762;7.000;2023-05-29T10:03:48;83908.34;;;-143.16;23.62
14885;BME280;7534;50.762;7.000;2023-05-29T10:06:20;83948.66;;;-143.16;23.85
14885;BME280;7534;50.762;7.000;2023-05-29T10:08:47;84218.84;;;-143.16;24.16
14885;BME280;7534;50.762;7.000;2023-05-29T10:11:21;84339.81;;;-143.16;24.54
14885;BME280;7534;50.762;7.000;2023-05-29T10:13:52;84216.81;;;-143.16;24.41
14885;BME280;7534;50.762;7.000;2023-05-29T10:16:22;84116.00;;;-143.16;24.44
14885;BME280;7534;50.762;7.000;2023-05-29T10:19:01;84037.38;;;-143.16;24.28
14885;BME280;7534;50.762;7.000;2023-05-29T10:21:28;84273.28;;;-143.16;24.21
14885;BME280;7534;50.762;7.000;2023-05-29T10:23:56;84222.88;;;-143.16;24.46
14885;BME280;7534;50.762;7.000;2023-05-29T10:26:25;84454.75;;;-143.16;25.70
14885;BME280;7534;50.762;7.000;2023-05-29T10:29:17;84501.13;;;-143.16;25.56
14885;BME280;7534;50.762;7.000;2023-05-29T10:32:07;84636.25;;;-143.16;26.14
14885;BME280;7534;50.762;7.000;2023-05-29T10:35:08;84827.81;;;-143.16;26.90
14885;BME280;7534;50.762;7.000;2023-05-29T10:37:53;84848.00;;;-143.16;27.49
14885;BME280;7534;50.762;7.000;2023-05-29T10:40:26;84845.97;;;-143.16;28.05
14885;BME280;7534;50.762;7.000;2023-05-29T10:42:53;84904.47;;;-143.16;27.56
14885;BME280;7534;50.762;7.000;2023-05-29T10:50:49;85150.50;;;-143.16;28.56
14885;BME280;7534;50.762;7.000;2023-05-29T10:53:22;85184.78;;;-143.16;29.09
14885;BME280;7534;50.762;7.000;2023-05-29T10:55:51;85251.34;;;-143.16;29.07
14885;BME280;7534;50.762;7.000;2023-05-29T10:58:26;85225.13;;;-143.16;29.33
14885;BME280;7534;50.762;7.000;2023-05-29T11:00:54;85295.72;;;-143.16;29.75
14885;BME280;7534;50.762;7.000;2023-05-29T11:03:31;85340.09;;;-143.16;29.61
14885;BME280;7534;50.762;7.000;2023-05-29T11:06:18;85364.31;;;-143.16;30.56
14885;BME280;7534;50.762;7.000;2023-05-29T11:08:54;85493.41;;;-143.16;30.43
14885;BME280;7534;50.762;7.000;2023-05-29T11:11:33;85481.28;;;-143.16;30.42
14885;BME280;7534;50.762;7.000;2023-05-29T11:14:05;85545.84;;;-143.16;30.84
14885;BME280;7534;50.762;7.000;2023-05-29T11:19:08;85559.97;;;-143.16;31.61
14885;BME280;7534;50.762;7.000;2023-05-29T11:22:09;85434.91;;;-143.16;31.70
14885;BME280;7534;50.762;7.000;2023-05-29T11:24:44;85447.00;;;-143.16;30.29
14885;BME280;7534;50.762;7.000;2023-05-29T11:27:10;85447.00;;;-143.16;30.27
14885;BME280;7534;50.762;7.000;2023-05-29T11:29:37;85440.94;;;-143.16;30.37
14885;BME280;7534;50.762;7.000;2023-05-29T11:32:14;85453.06;;;-143.16;30.67
14885;BME280;7534;50.762;7.000;2023-05-29T11:34:46;85523.66;;;-143.16;31.07
14885;BME280;7534;50.762;7.000;2023-05-29T11:37:13;85527.69;;;-143.16;30.72
14885;BME280;7534;50.762;7.000;2023-05-29T11:39:40;85566.00;;;-143.16;31.37
14885;BME280;7534;50.762;7.000;2023-05-29T11:42:08;85620.47;;;-143.16;31.66
14885;BME280;7534;50.762;7.000;2023-05-29T11:44:33;85566.00;;;-143.16;32.16
14885;BME280;7534;50.762;7.000;2023-05-29T11:47:05;85592.25;;;-143.16;31.35
14885;BME280;7534;50.762;7.000;2023-05-29T11:49:36;85582.16;;;-143.16;32.61
14885;BME280;7534;50.762;7.000;2023-05-29T11:52:15;85566.00;;;-143.16;31.40
14885;BME280;7534;50.762;7.000;2023-05-29T11:54:43;85551.91;;;-143.16;32.19
14885;BME280;7534;50.762;7.000;2023-05-29T11:57:22;85559.97;;;-143.16;31.57
14885;BME280;7534;50.762;7.000;2023-05-29T11:59:51;85551.91;;;-143.16;32.26
14885;BME280;7534;50.762;7.000;2023-05-29T12:02:17;85531.72;;;-143.16;31.97
14885;BME280;7534;50.762;7.000;2023-05-29T12:05:01;85561.97;;;-143.16;31.08
14885;BME280;7534;50.762;7.000;2023-05-29T12:07:27;85513.56;;;-143.16;31.55
14885;BME280;7534;50.762;7.000;2023-05-29T12:09:53;85475.25;;;-143.16;30.96
14885;BME280;7534;50.762;7.000;2023-05-29T12:12:23;85582.16;;;-143.16;31.86
14885;BME280;7534;50.762;7.000;2023-05-29T12:14:52;85586.19;;;-143.16;31.53
14885;BME280;7534;50.762;7.000;2023-05-29T12:17:20;85580.13;;;-143.16;30.96
14885;BME280;7534;50.762;7.000;2023-05-29T12:19:46;85525.66;;;-143.16;31.31
14885;BME280;7534;50.762;7.000;2023-05-29T12:22:12;85485.34;;;-143.16;31.43
14885;BME280;7534;50.762;7.000;2023-05-29T12:24:38;85517.59;;;-143.16;31.26
14885;BME280;7534;50.762;7.000;2023-05-29T12:27:04;85493.41;;;-143.16;32.03
14885;BME280;7534;50.762;7.000;2023-05-29T12:29:36;85495.41;;;-143.16;30.88
14885;BME280;7534;50.762;7.000;2023-05-29T12:32:01;85557.94;;;-143.16;31.27
14885;BME280;7534;50.762;7.000;2023-05-29T12:34:34;85521.63;;;-143.16;31.10
14885;BME280;7534;50.762;7.000;2023-05-29T12:37:09;85428.84;;;-143.16;30.61
14885;BME280;7534;50.762;7.000;2023-05-29T12:39:39;85418.75;;;-143.16;31.09
14885;BME280;7534;50.762;7.000;2023-05-29T12:42:05;85449.03;;;-143.16;30.94
14885;BME280;7534;50.762;7.000;2023-05-29T12:44:32;85487.34;;;-143.16;30.86
14885;BME280;7534;50.762;7.000;2023-05-29T12:46:58;85388.50;;;-143.16;31.05
14885;BME280;7534;50.762;7.000;2023-05-29T12:49:26;85394.56;;;-143.16;30.51
14885;BME280;7534;50.762;7.000;2023-05-29T12:52:05;85239.25;;;-143.16;30.15
14885;BME280;7534;50.762;7.000;2023-05-29T12:54:37;85239.25;;;-143.16;30.40
14885;BME280;7534;50.762;7.000;2023-05-29T12:57:03;85265.47;;;-143.16;30.41
14885;BME280;7534;50.762;7.000;2023-05-29T12:59:28;85309.84;;;-143.16;30.19
14885;BME280;7534;50.762;7.000;2023-05-29T13:01:54;85319.94;;;-143.16;30.69
14885;BME280;7534;50.762;7.000;2023-05-29T13:04:20;85356.25;;;-143.16;30.01
14885;BME280;7534;50.762;7.000;2023-05-29T13:06:45;85309.84;;;-143.16;30.30
14885;BME280;7534;50.762;7.000;2023-05-29T13:09:11;85229.16;;;-143.16;29.75
14885;BME280;7534;50.762;7.000;2023-05-29T13:11:37;85237.25;;;-143.16;29.68
14885;BME280;7534;50.762;7.000;2023-05-29T13:14:03;85299.75;;;-143.16;30.05